createdAt,value
2022-08-10T00:00:56.619Z,46.52
2022-08-10T00:03:23.631Z,46.89
2022-08-10T00:05:52.760Z,47.04
2022-08-10T00:08:23.644Z,47.18
2022-08-10T00:10:56.098Z,47.26
2022-08-10T00:13:25.041Z,47.30
2022-08-10T00:15:55.052Z,47.26
2022-08-10T00:18:35.859Z,47.48
2022-08-10T00:21:07.248Z,47.71
2022-08-10T00:23:35.129Z,47.50
2022-08-10T00:26:02.045Z,47.60
2022-08-10T00:28:28.705Z,47.19
2022-08-10T00:30:55.542Z,47.39
2022-08-10T00:33:22.316Z,47.23
2022-08-10T00:35:49.141Z,47.26
2022-08-10T00:38:15.873Z,47.48
2022-08-10T00:40:42.725Z,47.32
2022-08-10T00:43:09.475Z,47.31
2022-08-10T00:45:36.812Z,47.15
2022-08-10T00:48:04.102Z,47.22
2022-08-10T00:50:31.056Z,47.46
2022-08-10T00:52:57.723Z,47.75
2022-08-10T00:55:24.560Z,47.88
2022-08-10T00:57:54.732Z,47.99
2022-08-10T01:00:25.048Z,48.19
2022-08-10T01:02:52.196Z,47.99
2022-08-10T01:05:20.456Z,48.13
2022-08-10T01:07:50.396Z,47.75
2022-08-10T01:12:37.247Z,47.90
2022-08-10T01:14:17.757Z,47.80
2022-08-10T01:16:57.827Z,47.51
2022-08-10T01:19:49.393Z,48.20
2022-08-10T01:22:34.836Z,48.49
2022-08-10T01:25:23.217Z,48.21
2022-08-10T01:28:13.898Z,48.61
2022-08-10T01:30:43.090Z,48.51
2022-08-10T01:33:18.716Z,48.60
2022-08-10T01:36:19.493Z,48.72
2022-08-10T01:39:01.916Z,48.62
2022-08-10T01:41:54.279Z,49.05
2022-08-10T01:44:29.605Z,49.00
2022-08-10T01:47:22.549Z,49.11
2022-08-10T01:49:56.183Z,49.22
2022-08-10T01:52:26.608Z,49.16
2022-08-10T01:54:56.145Z,49.13
2022-08-10T01:57:25.785Z,49.48
2022-08-10T02:00:02.127Z,49.14
2022-08-10T02:02:31.566Z,49.29
2022-08-10T02:05:02.386Z,49.39
2022-08-10T02:07:31.442Z,49.01
2022-08-10T02:10:03.596Z,48.91
2022-08-10T02:12:33.582Z,49.00
2022-08-10T02:15:07.224Z,49.06
2022-08-10T02:17:57.470Z,49.09
2022-08-10T02:20:31.676Z,49.44
2022-08-10T02:23:09.529Z,49.29
2022-08-10T02:25:41.537Z,49.36
2022-08-10T02:28:12.155Z,49.34
2022-08-10T02:30:57.673Z,49.32
2022-08-10T02:33:26.921Z,49.12
2022-08-10T02:35:56.209Z,49.31
2022-08-10T02:38:58.685Z,50.06
2022-08-10T02:45:12.621Z,49.68
2022-08-10T02:45:19.339Z,50.02
2022-08-10T02:47:51.544Z,49.95
2022-08-10T02:50:22.166Z,50.05
2022-08-10T02:52:54.292Z,49.70
2022-08-10T02:55:32.835Z,49.94
2022-08-10T02:58:16.960Z,49.94
2022-08-10T03:00:48.844Z,49.65
2022-08-10T03:03:26.204Z,49.95
2022-08-10T03:05:59.867Z,49.72
2022-08-10T03:08:30.806Z,49.65
2022-08-10T03:11:01.396Z,49.75
2022-08-10T03:13:29.353Z,49.86
2022-08-10T03:15:56.777Z,49.80
2022-08-10T03:18:24.759Z,49.89
2022-08-10T03:20:52.894Z,50.22
2022-08-10T03:23:23.437Z,50.44
2022-08-10T03:25:54.383Z,50.42
2022-08-10T03:28:29.245Z,50.84
2022-08-10T03:30:58.243Z,50.75
2022-08-10T03:33:29.265Z,50.60
2022-08-10T03:36:40.144Z,50.95
2022-08-10T03:38:46.167Z,51.26
2022-08-10T03:41:16.151Z,50.93
2022-08-10T03:43:47.881Z,51.21
2022-08-10T03:46:18.341Z,51.22
2022-08-10T03:48:49.376Z,51.71
2022-08-10T03:51:18.878Z,51.72
2022-08-10T03:54:02.805Z,51.79
2022-08-10T03:56:32.959Z,51.77
2022-08-10T03:59:01.521Z,52.00
2022-08-10T04:02:46.490Z,52.25
2022-08-10T04:04:20.946Z,52.19
2022-08-10T04:06:54.602Z,52.40
2022-08-10T04:09:23.349Z,52.64
2022-08-10T04:11:50.075Z,52.55
2022-08-10T04:14:38.787Z,52.27
2022-08-10T04:17:03.316Z,52.26
2022-08-10T04:19:40.930Z,51.94
2022-08-10T04:22:15.818Z,51.68
2022-08-10T04:24:45.165Z,51.78
2022-08-10T04:27:12.304Z,51.79
2022-08-10T04:29:43.324Z,52.10
2022-08-10T04:32:15.712Z,52.55
2022-08-10T04:34:45.641Z,52.35
2022-08-10T04:37:13.941Z,52.62
2022-08-10T04:39:40.740Z,52.11
2022-08-10T04:42:07.798Z,52.06
2022-08-10T04:44:34.809Z,52.00
2022-08-10T04:47:01.465Z,52.19
2022-08-10T04:49:53.854Z,52.12
2022-08-10T04:52:15.738Z,52.00
2022-08-10T04:54:42.420Z,51.78
2022-08-10T04:57:09.254Z,51.92
2022-08-10T04:59:36.073Z,51.33
2022-08-10T05:02:22.214Z,51.97
2022-08-10T05:04:51.925Z,51.69
2022-08-10T05:07:18.775Z,51.40
2022-08-10T05:10:01.597Z,51.21
2022-08-10T05:12:37.704Z,51.35
2022-08-10T05:15:15.517Z,51.60
2022-08-10T05:18:03.130Z,51.55
2022-08-10T05:20:30.103Z,51.59
2022-08-10T05:22:56.727Z,51.78
2022-08-10T05:25:23.527Z,52.07
2022-08-10T05:27:51.716Z,51.58
2022-08-10T05:30:21.979Z,51.24
2022-08-10T05:32:58.604Z,50.85
2022-08-10T05:35:28.744Z,50.26
2022-08-10T05:38:13.231Z,50.24
2022-08-10T05:40:46.613Z,49.99
2022-08-10T05:43:16.827Z,49.39
2022-08-10T05:46:17.737Z,49.00
2022-08-10T05:48:54.365Z,48.83
2022-08-10T05:51:19.235Z,48.44
2022-08-10T05:54:00.956Z,48.54
2022-08-10T05:56:53.723Z,48.18
2022-08-10T06:00:30.881Z,48.27
2022-08-10T06:02:30.968Z,48.16
2022-08-10T06:04:57.327Z,48.00
2022-08-10T06:07:27.492Z,47.77
2022-08-10T06:09:58.952Z,47.97
2022-08-10T06:12:30.206Z,47.79
2022-08-10T06:15:05.177Z,48.03
2022-08-10T06:17:33.246Z,48.00
2022-08-10T06:20:01.568Z,47.91
2022-08-10T06:22:32.358Z,47.66
2022-08-10T06:25:37.725Z,47.66
2022-08-10T06:27:50.830Z,47.61
2022-08-10T06:30:21.003Z,47.65
2022-08-10T06:32:49.929Z,47.94
2022-08-10T06:35:17.596Z,47.46
2022-08-10T06:37:51.670Z,47.50
2022-08-10T06:40:19.955Z,47.38
2022-08-10T06:42:48.906Z,46.97
2022-08-10T06:45:29.915Z,46.33
2022-08-10T06:48:04.171Z,46.36
2022-08-10T06:50:56.176Z,46.13
2022-08-10T06:53:54.151Z,46.63
2022-08-10T06:56:38.113Z,46.35
2022-08-10T06:59:21.694Z,46.83
2022-08-10T07:02:03.971Z,47.05
2022-08-10T07:04:33.837Z,47.36
2022-08-10T07:07:05.684Z,46.60
2022-08-10T07:09:36.235Z,46.51
2022-08-10T07:12:07.796Z,46.66
2022-08-10T07:14:42.494Z,46.58
2022-08-10T07:17:31.730Z,46.91
2022-08-10T07:20:01.418Z,46.74
2022-08-10T07:23:54.293Z,46.61
2022-08-10T07:25:22.346Z,46.61
2022-08-10T07:28:00.441Z,46.78
2022-08-10T07:30:39.373Z,46.62
2022-08-10T07:33:11.667Z,46.69
2022-08-10T07:35:42.846Z,46.44
2022-08-10T07:38:20.710Z,46.74
2022-08-10T07:40:49.741Z,46.21
2022-08-10T07:43:20.356Z,46.35
2022-08-10T07:45:48.503Z,45.84
2022-08-10T07:48:19.199Z,46.33
2022-08-10T07:50:47.209Z,45.75
2022-08-10T07:53:20.426Z,45.81
2022-08-10T07:56:05.411Z,45.54
2022-08-10T07:58:46.365Z,45.89
2022-08-10T08:01:24.282Z,45.82
2022-08-10T08:04:10.672Z,45.65
2022-08-10T08:06:39.639Z,45.35
2022-08-10T08:09:06.388Z,45.59
2022-08-10T08:11:33.873Z,46.17
2022-08-10T08:14:02.121Z,46.07
2022-08-10T08:16:30.029Z,45.72
2022-08-10T08:24:04.353Z,45.52
2022-08-10T08:24:34.983Z,45.42
2022-08-10T08:27:06.359Z,45.38
2022-08-10T08:29:37.270Z,45.57
2022-08-10T08:32:05.970Z,45.27
2022-08-10T08:34:37.723Z,45.00
2022-08-10T08:37:06.166Z,44.68
2022-08-10T08:39:33.777Z,44.67
2022-08-10T08:42:25.034Z,44.05
2022-08-10T08:44:57.665Z,43.60
2022-08-10T08:48:03.135Z,43.42
2022-08-10T08:50:39.081Z,43.55
2022-08-10T08:54:02.635Z,42.05
2022-08-10T08:56:34.692Z,42.01
2022-08-10T08:59:10.473Z,41.75
2022-08-10T09:02:14.973Z,40.84
2022-08-10T09:05:09.174Z,39.27
2022-08-10T09:08:16.547Z,39.10
2022-08-10T09:10:54.370Z,39.45
2022-08-10T09:13:36.320Z,38.96
2022-08-10T09:16:26.206Z,39.80
2022-08-10T09:19:10.511Z,39.49
2022-08-10T09:22:17.521Z,39.28
2022-08-10T09:25:04.379Z,39.18
2022-08-10T09:27:40.580Z,39.09
2022-08-10T09:30:13.486Z,38.95
2022-08-10T09:36:13.678Z,38.44
2022-08-10T09:36:20.391Z,37.57
2022-08-10T09:38:48.189Z,37.20
2022-08-10T09:41:41.691Z,36.82
2022-08-10T09:44:14.247Z,37.67
2022-08-10T09:47:13.803Z,36.95
2022-08-10T09:49:55.155Z,36.24
2022-08-10T09:52:35.056Z,35.72
2022-08-10T09:56:18.046Z,36.24
2022-08-10T09:58:38.212Z,35.77
2022-08-10T10:02:04.222Z,34.63
2022-08-10T10:04:59.024Z,33.60
2022-08-10T10:07:30.123Z,34.11
2022-08-10T10:10:21.898Z,33.70
2022-08-10T10:12:56.891Z,34.08
2022-08-10T10:15:45.342Z,33.57
2022-08-10T10:18:59.825Z,33.59
2022-08-10T10:21:54.765Z,33.64
2022-08-10T10:24:29.158Z,33.96
2022-08-10T10:30:26.325Z,33.84
2022-08-10T10:33:17.102Z,33.26
2022-08-10T10:35:55.965Z,33.19
2022-08-10T10:38:27.068Z,33.17
2022-08-10T10:41:14.169Z,32.57
2022-08-10T10:44:22.484Z,32.00
2022-08-10T10:47:04.627Z,32.23
2022-08-10T10:49:37.497Z,31.94
2022-08-10T10:52:08.865Z,31.76
2022-08-10T10:54:58.347Z,31.10
2022-08-10T10:57:59.342Z,30.82
2022-08-10T11:00:26.303Z,30.81
2022-08-10T11:03:06.696Z,30.39
2022-08-10T11:05:44.809Z,30.17
2022-08-10T11:08:28.768Z,29.58
2022-08-10T11:11:03.116Z,29.29
2022-08-10T11:14:25.929Z,27.67
2022-08-10T11:17:03.072Z,27.63
2022-08-10T11:20:10.875Z,27.52
2022-08-10T11:23:07.772Z,27.79
2022-08-10T11:25:41.503Z,28.35
2022-08-10T11:28:37.349Z,26.91
2022-08-10T11:31:21.785Z,27.96
2022-08-10T11:34:47.371Z,27.54
2022-08-10T11:37:18.683Z,26.29
2022-08-10T11:39:57.687Z,26.53
2022-08-10T11:42:39.812Z,26.31
2022-08-10T11:45:16.484Z,26.63
2022-08-10T11:48:53.692Z,25.33
2022-08-10T11:51:07.588Z,25.54
2022-08-10T11:53:54.228Z,24.73
2022-08-10T11:56:58.536Z,25.01
2022-08-10T11:59:51.066Z,24.99
2022-08-10T12:02:31.494Z,25.69
2022-08-10T12:05:03.708Z,24.71
2022-08-10T12:09:17.382Z,24.36
2022-08-10T12:10:22.894Z,24.19
2022-08-10T12:13:02.658Z,23.99
2022-08-10T12:15:41.683Z,23.29
2022-08-10T12:18:19.526Z,23.20
2022-08-10T12:20:51.811Z,23.06
2022-08-10T12:23:48.432Z,22.12
2022-08-10T12:26:47.685Z,21.92
2022-08-10T12:29:28.011Z,21.49
2022-08-10T12:32:11.269Z,21.98
2022-08-10T12:35:00.439Z,21.50
2022-08-10T12:37:50.791Z,22.20
2022-08-10T12:40:36.455Z,21.88
2022-08-10T12:44:05.423Z,21.33
2022-08-10T12:46:20.187Z,21.56
2022-08-10T12:49:21.424Z,21.39
2022-08-10T12:51:53.493Z,21.59
2022-08-10T12:54:31.443Z,21.12
2022-08-10T12:57:26.598Z,20.93
2022-08-10T12:59:58.786Z,21.55
2022-08-10T13:02:29.754Z,21.08
2022-08-10T13:05:02.477Z,20.78
2022-08-10T13:08:24.318Z,20.95
2022-08-10T13:10:23.223Z,21.22
2022-08-10T13:12:54.572Z,20.81
2022-08-10T13:15:50.427Z,21.18
2022-08-10T13:18:28.042Z,21.53
2022-08-10T13:21:00.657Z,21.82
2022-08-10T13:23:30.064Z,22.10
2022-08-10T13:26:01.664Z,21.97
2022-08-10T13:28:39.629Z,21.29
2022-08-10T13:31:16.894Z,21.53
2022-08-10T13:34:41.576Z,21.18
2022-08-10T13:36:50.495Z,21.33
2022-08-10T13:39:24.500Z,21.37
2022-08-10T13:41:53.970Z,21.67
2022-08-10T13:44:34.512Z,22.33
2022-08-10T13:47:01.085Z,21.79
2022-08-10T13:49:30.798Z,22.89
2022-08-10T13:51:58.666Z,22.97
2022-08-10T13:54:29.558Z,23.28
2022-08-10T13:57:02.797Z,22.88
2022-08-10T14:00:36.786Z,22.99
2022-08-10T14:03:00.517Z,23.61
2022-08-10T14:05:31.317Z,23.39
2022-08-10T14:08:02.048Z,23.52
2022-08-10T14:11:09.354Z,23.73
2022-08-10T14:13:25.552Z,23.57
2022-08-10T14:15:53.573Z,23.86
2022-08-10T14:18:21.060Z,23.27
2022-08-10T14:20:50.562Z,23.26
2022-08-10T14:23:17.656Z,23.24
2022-08-10T14:26:09.177Z,23.09
2022-08-10T14:36:15.634Z,24.49
2022-08-10T14:37:45.028Z,24.50
2022-08-10T14:40:20.776Z,24.79
2022-08-10T14:43:07.091Z,24.26
2022-08-10T14:45:39.574Z,24.36
2022-08-10T14:48:11.685Z,24.74
2022-08-10T14:50:55.105Z,25.25
2022-08-10T14:53:26.600Z,24.76
2022-08-10T14:56:02.114Z,25.27
2022-08-10T14:58:58.993Z,25.16
2022-08-10T15:02:37.467Z,24.66
2022-08-10T15:04:24.808Z,24.51
2022-08-10T15:06:55.891Z,24.74
2022-08-10T15:09:28.264Z,25.22
2022-08-10T15:12:19.517Z,25.37
2022-08-10T15:14:58.535Z,25.08
2022-08-10T15:17:34.753Z,25.16
2022-08-10T15:20:13.570Z,25.50
2022-08-10T15:22:46.590Z,25.27
2022-08-10T15:25:17.853Z,25.57
2022-08-10T15:27:54.535Z,25.73
2022-08-10T15:30:38.686Z,25.21
2022-08-10T15:33:57.905Z,25.44
2022-08-10T15:36:37.564Z,25.38
2022-08-10T15:39:12.748Z,25.07
2022-08-10T15:42:07.064Z,25.31
2022-08-10T15:44:43.230Z,25.10
2022-08-10T15:47:17.444Z,25.02
2022-08-10T15:49:54.814Z,24.38
2022-08-10T15:53:00.505Z,24.47
2022-08-10T15:55:51.757Z,24.41
2022-08-10T15:58:38.883Z,25.18
2022-08-10T16:02:14.482Z,25.07
2022-08-10T16:04:36.527Z,24.40
2022-08-10T16:07:11.473Z,24.50
2022-08-10T16:10:23.198Z,24.33
2022-08-10T16:12:59.235Z,24.52
2022-08-10T16:15:29.181Z,24.55
2022-08-10T16:18:02.261Z,24.40
2022-08-10T16:20:53.341Z,23.84
2022-08-10T16:23:42.517Z,23.62
2022-08-10T16:26:14.419Z,23.58
2022-08-10T16:28:48.357Z,23.02
2022-08-10T16:31:20.911Z,22.99
2022-08-10T16:33:55.156Z,22.63
2022-08-10T16:36:29.063Z,23.43
2022-08-10T16:38:57.808Z,23.82
2022-08-10T16:42:00.557Z,24.18
2022-08-10T16:44:19.719Z,24.28
2022-08-10T16:46:47.308Z,24.32
2022-08-10T16:49:16.407Z,24.62
2022-08-10T16:51:48.192Z,23.59
2022-08-10T16:54:22.353Z,23.65
2022-08-10T16:56:53.461Z,24.10
2022-08-10T16:59:24.507Z,23.57
2022-08-10T17:01:54.163Z,23.98
2022-08-10T17:04:23.657Z,24.26
2022-08-10T17:06:58.351Z,23.61
2022-08-10T17:09:30.675Z,23.96
2022-08-10T17:11:59.462Z,24.61
2022-08-10T17:14:29.218Z,24.87
2022-08-10T17:17:26.045Z,24.42
2022-08-10T17:19:58.177Z,24.65
2022-08-10T17:22:45.855Z,24.74
2022-08-10T17:25:21.681Z,25.12
2022-08-10T17:28:04.702Z,25.61
2022-08-10T17:30:57.624Z,25.81
2022-08-10T17:33:29.548Z,25.76
2022-08-10T17:36:02.420Z,26.09
2022-08-10T17:38:31.552Z,26.33
2022-08-10T17:41:11.795Z,26.36
2022-08-10T17:43:46.197Z,26.93
2022-08-10T17:46:35.273Z,26.84
2022-08-10T17:49:08.591Z,28.64
2022-08-10T17:51:38.390Z,28.83
2022-08-10T17:54:14.212Z,29.21
2022-08-10T17:56:41.589Z,30.11
2022-08-10T17:59:17.487Z,30.01
2022-08-10T18:01:58.542Z,30.33
2022-08-10T18:04:35.642Z,30.46
2022-08-10T18:07:11.292Z,30.68
2022-08-10T18:09:47.780Z,30.32
2022-08-10T18:12:18.699Z,30.37
2022-08-10T18:14:50.119Z,30.60
2022-08-10T18:17:39.273Z,30.13
2022-08-10T18:20:09.306Z,30.28
2022-08-10T18:22:44.857Z,29.99
2022-08-10T18:25:18.844Z,29.54
2022-08-10T18:28:04.245Z,29.53
2022-08-10T18:30:36.354Z,29.63
2022-08-10T18:33:08.833Z,29.84
2022-08-10T18:35:36.711Z,30.04
2022-08-10T18:38:05.091Z,30.03
2022-08-10T18:40:35.555Z,30.18
2022-08-10T18:44:05.807Z,30.34
2022-08-10T18:46:01.091Z,30.52
2022-08-10T18:48:38.860Z,31.08
2022-08-10T18:51:07.792Z,31.15
2022-08-10T18:53:51.518Z,31.60
2022-08-10T18:56:18.230Z,31.88
2022-08-10T18:58:54.180Z,32.21
2022-08-10T19:01:59.446Z,32.65
2022-08-10T19:04:53.921Z,33.03
2022-08-10T19:07:45.396Z,33.23
2022-08-10T19:10:35.983Z,33.54
2022-08-10T19:13:33.012Z,33.92
2022-08-10T19:16:19.445Z,34.15
2022-08-10T19:19:22.377Z,34.43
2022-08-10T19:22:01.359Z,34.74
2022-08-10T19:24:42.592Z,35.18
2022-08-10T19:27:30.270Z,35.04
2022-08-10T19:30:09.373Z,35.02
2022-08-10T19:33:02.787Z,35.18
2022-08-10T19:36:03.479Z,35.51
2022-08-10T19:38:49.385Z,35.64
2022-08-10T19:41:44.878Z,36.15
2022-08-10T19:44:29.409Z,36.26
2022-08-10T19:47:05.465Z,36.39
2022-08-10T19:50:15.449Z,36.39
2022-08-10T19:53:19.184Z,36.71
2022-08-10T19:56:24.304Z,36.43
2022-08-10T19:59:08.321Z,36.99
2022-08-10T20:01:54.459Z,36.66
2022-08-10T20:04:32.215Z,37.10
2022-08-10T20:07:10.362Z,36.93
2022-08-10T20:10:23.455Z,37.28
2022-08-10T20:12:59.334Z,37.19
2022-08-10T20:15:42.173Z,36.91
2022-08-10T20:18:43.629Z,37.73
2022-08-10T20:21:14.099Z,37.68
2022-08-10T20:23:56.922Z,37.94
2022-08-10T20:26:28.675Z,37.62
2022-08-10T20:29:16.149Z,37.52
2022-08-10T20:31:57.032Z,37.98
2022-08-10T20:34:27.819Z,37.66
2022-08-10T20:37:05.658Z,37.85
2022-08-10T20:39:57.359Z,38.03
2022-08-10T20:42:45.857Z,37.71
2022-08-10T20:45:41.558Z,37.95
2022-08-10T20:48:28.587Z,38.12
2022-08-10T20:51:02.407Z,38.61
2022-08-10T20:53:35.916Z,38.61
2022-08-10T20:56:17.240Z,39.47
2022-08-10T20:59:16.619Z,39.68
2022-08-10T21:02:33.475Z,39.71
2022-08-10T21:05:09.663Z,40.20
2022-08-10T21:08:02.082Z,40.17
2022-08-10T21:10:56.376Z,40.57
2022-08-10T21:14:01.774Z,41.10
2022-08-10T21:16:31.461Z,40.66
2022-08-10T21:19:31.242Z,41.15
2022-08-10T21:22:16.856Z,41.22
2022-08-10T21:25:05.465Z,41.09
2022-08-10T21:28:09.537Z,41.41
2022-08-10T21:30:36.088Z,41.37
2022-08-10T21:33:17.669Z,41.07
2022-08-10T21:35:52.925Z,41.49
2022-08-10T21:38:46.871Z,41.52
2022-08-10T21:41:56.390Z,41.45
2022-08-10T21:45:08.831Z,41.41
2022-08-10T21:48:17.619Z,41.59
2022-08-10T21:51:16.695Z,41.58
2022-08-10T21:54:16.215Z,41.52
2022-08-10T21:57:20.772Z,41.69
2022-08-10T22:03:39.396Z,41.73
2022-08-10T22:06:28.421Z,41.75
2022-08-10T22:09:24.866Z,41.92
2022-08-10T22:12:31.115Z,41.67
2022-08-10T22:16:04.035Z,41.73
2022-08-10T22:18:33.098Z,41.60
2022-08-10T22:21:45.498Z,42.56
2022-08-10T22:25:16.462Z,43.02
2022-08-10T22:28:07.428Z,42.49
2022-08-10T22:35:00.609Z,43.57
2022-08-10T22:38:08.050Z,43.80
2022-08-10T22:40:56.517Z,43.58
2022-08-10T22:43:48.534Z,44.29
2022-08-10T22:46:45.078Z,44.39
2022-08-10T22:49:11.939Z,44.16
2022-08-10T22:52:09.823Z,44.17
2022-08-10T22:55:07.160Z,44.21
2022-08-10T22:57:52.892Z,43.97
2022-08-10T23:00:30.735Z,44.29
2022-08-10T23:03:15.679Z,44.97
2022-08-10T23:05:57.616Z,44.64
2022-08-10T23:08:42.623Z,44.71
2022-08-10T23:11:17.775Z,44.54
2022-08-10T23:13:46.455Z,44.77
2022-08-10T23:16:41.740Z,44.86
2022-08-10T23:19:27.734Z,45.32
2022-08-10T23:22:08.771Z,45.09
2022-08-10T23:24:39.760Z,44.87
2022-08-10T23:27:38.519Z,45.02
2022-08-10T23:30:09.334Z,45.39
2022-08-10T23:32:42.279Z,45.31
2022-08-10T23:36:04.506Z,45.57
2022-08-10T23:38:03.587Z,45.46
2022-08-10T23:40:31.443Z,45.53
2022-08-10T23:42:59.472Z,45.83
2022-08-10T23:45:28.851Z,45.37
2022-08-10T23:48:19.878Z,45.81
2022-08-10T23:50:53.152Z,45.53
2022-08-10T23:53:31.710Z,45.52
2022-08-10T23:56:02.052Z,45.63
2022-08-10T23:58:36.179Z,45.71
